Aviation Digital Data Service (ADDS)

Output produced by METARs form (1602 UTC 18 February 2019)
found at http://www.aviationweather.gov/metar/data/
 
METAR text: KMTH 181553Z AUTO A3012 RMK AO2 SLP201 $
Conditions at: KMTH (MARATHON , FL, US) observed 1553 UTC 18 February 2019
Temperature: missing
Dewpoint: missing
Pressure (altimeter): 30.12 inches Hg (1020.1 mb)
[Sea-level pressure: 1020.1 mb]
Winds: missing
Visibility: missing
Ceiling: unknown
Clouds: missing
Weather:
SOME DATA ABOVE MAY BE INACCURATE!!!
"$" is an indication the sensor requires maintenance

Forecast for: KMTH (MARATHON , FL, US)
Text: KMTH 181132Z 1812/1912 15007KT P6SM FEW015 SCT020
Forecast period: 1200 UTC 18 February 2019 to 0000 UTC 19 February 2019
Forecast type: FROM: standard forecast or significant change
Winds: from the SSE (150 degrees) at 8 MPH (7 knots; 3.6 m/s)
Visibility: 6 or more miles 10+ km)
Ceiling: at least 12,000 feet AGL
Clouds: few clouds at 1500 feet AGL
scattered clouds at 2000 feet AGL
Weather: no significant weather forecast for this period
Text: FM190000 11007KT P6SM FEW025 FEW050
Forecast period: 0000 to 1200 UTC 19 February 2019
Forecast type: FROM: standard forecast or significant change
Winds: from the ESE (110 degrees) at 8 MPH (7 knots; 3.6 m/s)
Visibility: 6 or more miles 10+ km)
Ceiling: at least 12,000 feet AGL
Clouds: few clouds at 2500 feet AGL
few clouds at 5000 feet AGL
Weather: no significant weather forecast for this period